Society Hill, South Carolina
Current Conditions -  °F | °C
As of 1:15 PM on Friday 31 Oct 2014 (Local Time) from KUDG Reporting Station
Clear Clear  
Wind Chill: 64°   Ceiling: Unl
Heat Index: 64°   Visibility: 10mi
Dew Point: 45°   Wind: 3mph
Humidity: 49%   Direction: 350°N
Pressure: 29.88"   Gusts: NA
Location:  34.51°N, 79.85°W
Report Text: KUDG 311715Z AUTO 35003KT 10SM CLR 18/07 A2988 RMK AO1
Loading
Personal Weather Stations






























Interactive Weather Map
Tropical Storm Tracking
New forecast layout! Learn more

10-Day Weather Forecast

Advertisements
Track Severe Weather on mobile